sensor_id;sensor_type;location;lat;lon;timestamp;temperature;humidity
76203;DHT22;64985;46.364;17.008;2023-01-01T00:01:10;11.50;99.90
76203;DHT22;64985;46.364;17.008;2023-01-01T00:04:14;11.50;99.90
76203;DHT22;64985;46.364;17.008;2023-01-01T00:07:16;11.50;99.90
76203;DHT22;64985;46.364;17.008;2023-01-01T00:10:18;11.60;99.90
76203;DHT22;64985;46.364;17.008;2023-01-01T00:13:30;11.50;99.90
76203;DHT22;64985;46.364;17.008;2023-01-01T00:16:32;11.50;99.90
76203;DHT22;64985;46.364;17.008;2023-01-01T00:19:34;11.50;99.90
76203;DHT22;64985;46.364;17.008;2023-01-01T00:22:37;11.60;99.90
76203;DHT22;64985;46.364;17.008;2023-01-01T00:25:56;11.50;99.90
76203;DHT22;64985;46.364;17.008;2023-01-01T00:28:59;11.50;99.90
76203;DHT22;64985;46.364;17.008;2023-01-01T00:32:02;11.50;99.90
76203;DHT22;64985;46.364;17.008;2023-01-01T00:35:08;11.60;99.90
76203;DHT22;64985;46.364;17.008;2023-01-01T00:38:11;11.60;99.90
76203;DHT22;64985;46.364;17.008;2023-01-01T00:41:14;11.50;99.90
76203;DHT22;64985;46.364;17.008;2023-01-01T00:44:16;11.50;99.90
76203;DHT22;64985;46.364;17.008;2023-01-01T00:47:18;11.40;99.90
76203;DHT22;64985;46.364;17.008;2023-01-01T00:50:21;11.40;99.90
76203;DHT22;64985;46.364;17.008;2023-01-01T00:53:24;11.40;99.90
76203;DHT22;64985;46.364;17.008;2023-01-01T00:56:26;11.30;99.90
76203;DHT22;64985;46.364;17.008;2023-01-01T00:59:28;11.40;99.90
76203;DHT22;64985;46.364;17.008;2023-01-01T01:02:30;11.40;99.90
76203;DHT22;64985;46.364;17.008;2023-01-01T01:05:33;11.50;99.90
76203;DHT22;64985;46.364;17.008;2023-01-01T01:08:41;11.50;99.90
76203;DHT22;64985;46.364;17.008;2023-01-01T01:11:43;11.50;99.90
76203;DHT22;64985;46.364;17.008;2023-01-01T01:14:46;11.50;99.90
76203;DHT22;64985;46.364;17.008;2023-01-01T01:17:48;11.50;99.90
76203;DHT22;64985;46.364;17.008;2023-01-01T01:20:51;11.40;99.90
76203;DHT22;64985;46.364;17.008;2023-01-01T01:23:57;11.50;99.90
76203;DHT22;64985;46.364;17.008;2023-01-01T01:26:59;11.50;99.90
76203;DHT22;64985;46.364;17.008;2023-01-01T01:30:02;11.50;99.90
76203;DHT22;64985;46.364;17.008;2023-01-01T01:33:04;11.50;99.90
76203;DHT22;64985;46.364;17.008;2023-01-01T01:36:07;11.40;99.90
76203;DHT22;64985;46.364;17.008;2023-01-01T01:39:11;11.60;99.90
76203;DHT22;64985;46.364;17.008;2023-01-01T01:42:17;11.60;99.90
76203;DHT22;64985;46.364;17.008;2023-01-01T01:45:19;11.70;99.90
76203;DHT22;64985;46.364;17.008;2023-01-01T01:48:22;11.80;99.90
76203;DHT22;64985;46.364;17.008;2023-01-01T01:51:36;11.80;99.90
76203;DHT22;64985;46.364;17.008;2023-01-01T01:54:39;11.80;99.90
76203;DHT22;64985;46.364;17.008;2023-01-01T01:57:42;11.90;99.90
76203;DHT22;64985;46.364;17.008;2023-01-01T02:00:45;11.80;99.90
76203;DHT22;64985;46.364;17.008;2023-01-01T02:03:52;11.70;99.90
76203;DHT22;64985;46.364;17.008;2023-01-01T02:06:56;11.70;99.90
76203;DHT22;64985;46.364;17.008;2023-01-01T02:09:59;11.80;99.90
76203;DHT22;64985;46.364;17.008;2023-01-01T02:13:02;11.70;99.90
76203;DHT22;64985;46.364;17.008;2023-01-01T02:32:46;11.70;99.90
76203;DHT22;64985;46.364;17.008;2023-01-01T02:35:56;11.60;99.90
76203;DHT22;64985;46.364;17.008;2023-01-01T02:39:00;11.80;99.90
76203;DHT22;64985;46.364;17.008;2023-01-01T02:42:06;11.70;99.90
76203;DHT22;64985;46.364;17.008;2023-01-01T02:45:09;11.70;99.90
76203;DHT22;64985;46.364;17.008;2023-01-01T02:55:03;11.70;99.90
76203;DHT22;64985;46.364;17.008;2023-01-01T02:58:16;11.60;99.90
76203;DHT22;64985;46.364;17.008;2023-01-01T03:01:47;11.60;99.90
76203;DHT22;64985;46.364;17.008;2023-01-01T03:08:14;11.50;99.90
76203;DHT22;64985;46.364;17.008;2023-01-01T03:11:21;11.50;99.90
76203;DHT22;64985;46.364;17.008;2023-01-01T03:15:08;11.50;99.90
76203;DHT22;64985;46.364;17.008;2023-01-01T03:18:13;11.50;99.90
76203;DHT22;64985;46.364;17.008;2023-01-01T03:21:19;11.60;99.90
76203;DHT22;64985;46.364;17.008;2023-01-01T03:24:50;11.50;99.90
76203;DHT22;64985;46.364;17.008;2023-01-01T03:27:58;11.40;99.90
76203;DHT22;64985;46.364;17.008;2023-01-01T03:31:03;11.40;99.90
76203;DHT22;64985;46.364;17.008;2023-01-01T03:34:10;11.40;99.90
76203;DHT22;64985;46.364;17.008;2023-01-01T03:37:20;11.50;99.90
76203;DHT22;64985;46.364;17.008;2023-01-01T03:40:27;11.30;99.90
76203;DHT22;64985;46.364;17.008;2023-01-01T03:43:44;11.30;99.90
76203;DHT22;64985;46.364;17.008;2023-01-01T03:46:50;11.30;99.90
76203;DHT22;64985;46.364;17.008;2023-01-01T03:49:52;11.20;99.90
76203;DHT22;64985;46.364;17.008;2023-01-01T03:53:07;11.20;99.90
76203;DHT22;64985;46.364;17.008;2023-01-01T03:56:43;11.10;99.90
76203;DHT22;64985;46.364;17.008;2023-01-01T04:00:06;11.20;99.90
76203;DHT22;64985;46.364;17.008;2023-01-01T04:06:21;11.30;99.90
76203;DHT22;64985;46.364;17.008;2023-01-01T04:09:28;11.30;99.90
76203;DHT22;64985;46.364;17.008;2023-01-01T04:12:31;11.30;99.90
76203;DHT22;64985;46.364;17.008;2023-01-01T04:15:34;11.20;99.90
76203;DHT22;64985;46.364;17.008;2023-01-01T04:18:38;11.20;99.90
76203;DHT22;64985;46.364;17.008;2023-01-01T04:21:41;11.10;99.90
76203;DHT22;64985;46.364;17.008;2023-01-01T04:24:43;11.10;99.90
76203;DHT22;64985;46.364;17.008;2023-01-01T04:27:45;11.10;99.90
76203;DHT22;64985;46.364;17.008;2023-01-01T04:30:47;11.00;99.90
76203;DHT22;64985;46.364;17.008;2023-01-01T04:33:52;10.90;99.90
76203;DHT22;64985;46.364;17.008;2023-01-01T04:36:55;10.90;99.90
76203;DHT22;64985;46.364;17.008;2023-01-01T04:39:57;10.80;99.90
76203;DHT22;64985;46.364;17.008;2023-01-01T04:42:59;10.80;99.90
76203;DHT22;64985;46.364;17.008;2023-01-01T04:46:03;10.90;99.90
76203;DHT22;64985;46.364;17.008;2023-01-01T04:49:05;10.80;99.90
76203;DHT22;64985;46.364;17.008;2023-01-01T04:52:08;10.70;99.90
76203;DHT22;64985;46.364;17.008;2023-01-01T04:55:10;10.60;99.90
76203;DHT22;64985;46.364;17.008;2023-01-01T04:58:12;10.60;99.90
76203;DHT22;64985;46.364;17.008;2023-01-01T05:01:23;10.60;99.90
76203;DHT22;64985;46.364;17.008;2023-01-01T05:04:26;10.60;99.90
76203;DHT22;64985;46.364;17.008;2023-01-01T05:07:28;10.60;99.90
76203;DHT22;64985;46.364;17.008;2023-01-01T05:10:33;10.50;99.90
76203;DHT22;64985;46.364;17.008;2023-01-01T05:13:37;10.60;99.90
76203;DHT22;64985;46.364;17.008;2023-01-01T05:16:39;10.60;99.90
76203;DHT22;64985;46.364;17.008;2023-01-01T05:19:42;10.60;99.90
76203;DHT22;64985;46.364;17.008;2023-01-01T05:22:45;10.60;99.90
76203;DHT22;64985;46.364;17.008;2023-01-01T05:25:47;10.60;99.90
76203;DHT22;64985;46.364;17.008;2023-01-01T05:28:50;10.60;99.90
76203;DHT22;64985;46.364;17.008;2023-01-01T05:31:52;10.50;99.90
76203;DHT22;64985;46.364;17.008;2023-01-01T05:34:54;10.50;99.90
76203;DHT22;64985;46.364;17.008;2023-01-01T05:37:57;10.50;99.90
76203;DHT22;64985;46.364;17.008;2023-01-01T05:41:04;10.50;99.90
76203;DHT22;64985;46.364;17.008;2023-01-01T05:44:07;10.50;99.90
76203;DHT22;64985;46.364;17.008;2023-01-01T05:47:11;10.40;99.90
76203;DHT22;64985;46.364;17.008;2023-01-01T05:50:13;10.40;99.90
76203;DHT22;64985;46.364;17.008;2023-01-01T05:53:15;10.40;99.90
76203;DHT22;64985;46.364;17.008;2023-01-01T05:56:17;10.60;99.90
76203;DHT22;64985;46.364;17.008;2023-01-01T05:59:20;10.60;99.90
76203;DHT22;64985;46.364;17.008;2023-01-01T06:02:23;10.60;99.90
76203;DHT22;64985;46.364;17.008;2023-01-01T06:05:25;10.70;99.90
76203;DHT22;64985;46.364;17.008;2023-01-01T06:08:27;10.80;99.90
76203;DHT22;64985;46.364;17.008;2023-01-01T06:11:30;10.90;99.90
76203;DHT22;64985;46.364;17.008;2023-01-01T06:14:32;10.80;99.90
76203;DHT22;64985;46.364;17.008;2023-01-01T06:17:34;10.90;99.90
76203;DHT22;64985;46.364;17.008;2023-01-01T06:20:37;11.00;99.90
76203;DHT22;64985;46.364;17.008;2023-01-01T06:23:39;10.90;99.90
76203;DHT22;64985;46.364;17.008;2023-01-01T06:26:41;11.00;99.90
76203;DHT22;64985;46.364;17.008;2023-01-01T06:29:44;11.00;99.90
76203;DHT22;64985;46.364;17.008;2023-01-01T06:32:46;11.10;99.90
76203;DHT22;64985;46.364;17.008;2023-01-01T06:35:48;11.00;99.90
76203;DHT22;64985;46.364;17.008;2023-01-01T06:38:53;11.00;99.90
76203;DHT22;64985;46.364;17.008;2023-01-01T06:41:56;10.90;99.90
76203;DHT22;64985;46.364;17.008;2023-01-01T06:44:58;11.10;99.90
76203;DHT22;64985;46.364;17.008;2023-01-01T06:48:00;11.20;99.90
76203;DHT22;64985;46.364;17.008;2023-01-01T06:51:13;11.30;99.90
76203;DHT22;64985;46.364;17.008;2023-01-01T06:54:16;11.30;99.90
76203;DHT22;64985;46.364;17.008;2023-01-01T06:57:18;11.40;99.90
76203;DHT22;64985;46.364;17.008;2023-01-01T07:00:21;11.40;99.90
76203;DHT22;64985;46.364;17.008;2023-01-01T07:03:23;11.40;99.90
76203;DHT22;64985;46.364;17.008;2023-01-01T07:06:28;11.30;99.90
76203;DHT22;64985;46.364;17.008;2023-01-01T07:09:30;11.30;99.90
76203;DHT22;64985;46.364;17.008;2023-01-01T07:12:33;11.40;99.90
76203;DHT22;64985;46.364;17.008;2023-01-01T07:15:35;11.40;99.90
76203;DHT22;64985;46.364;17.008;2023-01-01T07:18:38;11.50;99.90
76203;DHT22;64985;46.364;17.008;2023-01-01T07:21:50;11.40;99.90
76203;DHT22;64985;46.364;17.008;2023-01-01T07:24:52;11.40;99.90
76203;DHT22;64985;46.364;17.008;2023-01-01T07:27:54;11.40;99.90
76203;DHT22;64985;46.364;17.008;2023-01-01T07:30:57;11.40;99.90
76203;DHT22;64985;46.364;17.008;2023-01-01T07:33:59;11.60;99.90
76203;DHT22;64985;46.364;17.008;2023-01-01T07:37:01;11.60;99.90
76203;DHT22;64985;46.364;17.008;2023-01-01T07:40:04;11.80;99.90
76203;DHT22;64985;46.364;17.008;2023-01-01T07:43:08;11.80;99.90
76203;DHT22;64985;46.364;17.008;2023-01-01T07:46:14;11.90;99.90
76203;DHT22;64985;46.364;17.008;2023-01-01T07:49:17;12.00;99.90
76203;DHT22;64985;46.364;17.008;2023-01-01T07:52:19;12.10;99.90
76203;DHT22;64985;46.364;17.008;2023-01-01T07:55:22;12.10;99.90
76203;DHT22;64985;46.364;17.008;2023-01-01T07:58:24;12.20;99.90
76203;DHT22;64985;46.364;17.008;2023-01-01T08:01:27;12.40;99.90
76203;DHT22;64985;46.364;17.008;2023-01-01T08:04:29;12.50;99.90
76203;DHT22;64985;46.364;17.008;2023-01-01T08:07:31;12.70;99.90
76203;DHT22;64985;46.364;17.008;2023-01-01T08:10:33;12.80;99.90
76203;DHT22;64985;46.364;17.008;2023-01-01T08:13:36;12.90;99.90
76203;DHT22;64985;46.364;17.008;2023-01-01T08:16:38;13.00;99.90
76203;DHT22;64985;46.364;17.008;2023-01-01T08:19:40;13.10;99.90
76203;DHT22;64985;46.364;17.008;2023-01-01T08:22:43;13.10;99.90
76203;DHT22;64985;46.364;17.008;2023-01-01T08:25:45;13.10;99.90
76203;DHT22;64985;46.364;17.008;2023-01-01T08:28:47;13.10;99.90
76203;DHT22;64985;46.364;17.008;2023-01-01T08:31:58;13.00;99.90
76203;DHT22;64985;46.364;17.008;2023-01-01T08:35:00;13.00;99.90
76203;DHT22;64985;46.364;17.008;2023-01-01T08:38:02;13.00;99.90
76203;DHT22;64985;46.364;17.008;2023-01-01T08:41:04;13.10;99.90
76203;DHT22;64985;46.364;17.008;2023-01-01T08:44:06;13.20;99.90
76203;DHT22;64985;46.364;17.008;2023-01-01T08:47:19;13.40;99.90
76203;DHT22;64985;46.364;17.008;2023-01-01T08:50:21;13.50;99.90
76203;DHT22;64985;46.364;17.008;2023-01-01T08:53:23;13.70;99.90
76203;DHT22;64985;46.364;17.008;2023-01-01T08:56:25;13.80;99.90
76203;DHT22;64985;46.364;17.008;2023-01-01T08:59:28;14.00;99.90
76203;DHT22;64985;46.364;17.008;2023-01-01T09:02:30;14.50;99.90
76203;DHT22;64985;46.364;17.008;2023-01-01T09:05:32;14.50;99.40
76203;DHT22;64985;46.364;17.008;2023-01-01T09:08:35;14.70;99.10
76203;DHT22;64985;46.364;17.008;2023-01-01T09:11:37;14.70;99.30
76203;DHT22;64985;46.364;17.008;2023-01-01T09:14:40;14.70;98.90
76203;DHT22;64985;46.364;17.008;2023-01-01T09:17:42;14.60;98.90
76203;DHT22;64985;46.364;17.008;2023-01-01T09:20:45;14.40;99.90
76203;DHT22;64985;46.364;17.008;2023-01-01T09:23:47;14.60;98.90
76203;DHT22;64985;46.364;17.008;2023-01-01T09:26:50;14.70;98.70
76203;DHT22;64985;46.364;17.008;2023-01-01T09:29:52;14.60;99.20
76203;DHT22;64985;46.364;17.008;2023-01-01T09:32:54;14.80;98.40
76203;DHT22;64985;46.364;17.008;2023-01-01T09:36:11;15.00;98.20
76203;DHT22;64985;46.364;17.008;2023-01-01T09:39:14;14.80;98.50
76203;DHT22;64985;46.364;17.008;2023-01-01T09:49:05;14.40;99.90
76203;DHT22;64985;46.364;17.008;2023-01-01T09:52:11;14.20;99.90
76203;DHT22;64985;46.364;17.008;2023-01-01T09:55:26;14.30;99.90
76203;DHT22;64985;46.364;17.008;2023-01-01T09:58:36;14.40;99.90
76203;DHT22;64985;46.364;17.008;2023-01-01T10:01:44;14.70;99.90
76203;DHT22;64985;46.364;17.008;2023-01-01T10:08:22;14.90;99.90
76203;DHT22;64985;46.364;17.008;2023-01-01T10:14:40;15.10;99.80
76203;DHT22;64985;46.364;17.008;2023-01-01T10:17:45;15.20;99.40
76203;DHT22;64985;46.364;17.008;2023-01-01T10:21:11;15.20;98.60
76203;DHT22;64985;46.364;17.008;2023-01-01T10:27:43;15.30;98.80
76203;DHT22;64985;46.364;17.008;2023-01-01T10:30:46;15.30;98.80
76203;DHT22;64985;46.364;17.008;2023-01-01T10:33:48;15.50;98.20
76203;DHT22;64985;46.364;17.008;2023-01-01T10:36:53;15.50;99.20
76203;DHT22;64985;46.364;17.008;2023-01-01T10:39:55;15.40;98.50
76203;DHT22;64985;46.364;17.008;2023-01-01T10:42:59;15.50;98.70
76203;DHT22;64985;46.364;17.008;2023-01-01T10:46:03;15.50;98.70
76203;DHT22;64985;46.364;17.008;2023-01-01T10:49:10;15.60;98.40
76203;DHT22;64985;46.364;17.008;2023-01-01T10:52:13;15.60;98.30
76203;DHT22;64985;46.364;17.008;2023-01-01T10:55:20;15.60;98.20
76203;DHT22;64985;46.364;17.008;2023-01-01T11:01:34;15.70;98.20
76203;DHT22;64985;46.364;17.008;2023-01-01T11:04:36;15.60;99.00
76203;DHT22;64985;46.364;17.008;2023-01-01T11:07:40;15.70;99.10
76203;DHT22;64985;46.364;17.008;2023-01-01T11:10:49;15.70;98.50
76203;DHT22;64985;46.364;17.008;2023-01-01T11:13:53;15.80;99.70
76203;DHT22;64985;46.364;17.008;2023-01-01T11:16:56;15.90;98.90
76203;DHT22;64985;46.364;17.008;2023-01-01T11:20:00;15.90;99.60
76203;DHT22;64985;46.364;17.008;2023-01-01T11:26:31;15.90;97.60
76203;DHT22;64985;46.364;17.008;2023-01-01T11:29:33;16.00;98.50
76203;DHT22;64985;46.364;17.008;2023-01-01T11:32:35;16.20;97.70
76203;DHT22;64985;46.364;17.008;2023-01-01T11:35:48;16.30;96.80
76203;DHT22;64985;46.364;17.008;2023-01-01T11:39:17;16.30;96.40
76203;DHT22;64985;46.364;17.008;2023-01-01T11:42:28;16.40;96.40
76203;DHT22;64985;46.364;17.008;2023-01-01T11:45:32;16.70;95.60
76203;DHT22;64985;46.364;17.008;2023-01-01T11:48:41;17.00;93.70
76203;DHT22;64985;46.364;17.008;2023-01-01T11:51:44;17.40;92.40
76203;DHT22;64985;46.364;17.008;2023-01-01T11:54:47;17.50;90.70
76203;DHT22;64985;46.364;17.008;2023-01-01T11:57:58;17.60;92.10
76203;DHT22;64985;46.364;17.008;2023-01-01T12:04:24;17.70;90.00
76203;DHT22;64985;46.364;17.008;2023-01-01T12:07:31;17.70;86.30
76203;DHT22;64985;46.364;17.008;2023-01-01T12:10:48;17.80;82.80
76203;DHT22;64985;46.364;17.008;2023-01-01T12:14:17;17.90;83.50
76203;DHT22;64985;46.364;17.008;2023-01-01T12:17:23;18.20;84.40
76203;DHT22;64985;46.364;17.008;2023-01-01T12:20:37;18.60;77.10
76203;DHT22;64985;46.364;17.008;2023-01-01T12:23:41;18.80;74.80
76203;DHT22;64985;46.364;17.008;2023-01-01T12:37:15;19.40;69.70
76203;DHT22;64985;46.364;17.008;2023-01-01T12:40:36;19.20;65.90
76203;DHT22;64985;46.364;17.008;2023-01-01T12:53:22;19.30;62.20
76203;DHT22;64985;46.364;17.008;2023-01-01T12:57:08;19.70;64.00
76203;DHT22;64985;46.364;17.008;2023-01-01T13:00:15;19.00;64.70
76203;DHT22;64985;46.364;17.008;2023-01-01T13:03:21;18.40;66.70
76203;DHT22;64985;46.364;17.008;2023-01-01T13:09:35;18.70;69.30
76203;DHT22;64985;46.364;17.008;2023-01-01T13:12:39;19.10;66.80
76203;DHT22;64985;46.364;17.008;2023-01-01T13:15:44;18.60;70.40
76203;DHT22;64985;46.364;17.008;2023-01-01T13:18:48;19.00;65.60
76203;DHT22;64985;46.364;17.008;2023-01-01T13:21:50;19.00;64.00
76203;DHT22;64985;46.364;17.008;2023-01-01T13:28:13;18.40;68.30
76203;DHT22;64985;46.364;17.008;2023-01-01T13:31:17;18.70;68.00
76203;DHT22;64985;46.364;17.008;2023-01-01T13:34:41;18.40;67.90
76203;DHT22;64985;46.364;17.008;2023-01-01T13:37:44;18.30;69.80
76203;DHT22;64985;46.364;17.008;2023-01-01T13:40:49;18.20;72.10
76203;DHT22;64985;46.364;17.008;2023-01-01T13:47:28;18.40;70.60
76203;DHT22;64985;46.364;17.008;2023-01-01T13:50:43;18.50;70.40
76203;DHT22;64985;46.364;17.008;2023-01-01T14:07:54;17.30;83.10
76203;DHT22;64985;46.364;17.008;2023-01-01T14:10:57;17.60;80.20
76203;DHT22;64985;46.364;17.008;2023-01-01T14:14:01;17.70;79.40
76203;DHT22;64985;46.364;17.008;2023-01-01T14:17:06;17.70;79.80
76203;DHT22;64985;46.364;17.008;2023-01-01T14:20:14;17.80;79.80
76203;DHT22;64985;46.364;17.008;2023-01-01T14:23:19;17.80;78.20
76203;DHT22;64985;46.364;17.008;2023-01-01T14:26:24;18.20;76.10
76203;DHT22;64985;46.364;17.008;2023-01-01T14:29:29;18.10;77.00
76203;DHT22;64985;46.364;17.008;2023-01-01T14:32:31;18.00;76.10
76203;DHT22;64985;46.364;17.008;2023-01-01T14:35:34;18.00;74.60
76203;DHT22;64985;46.364;17.008;2023-01-01T14:38:43;17.80;75.90
76203;DHT22;64985;46.364;17.008;2023-01-01T14:41:45;17.70;78.40
76203;DHT22;64985;46.364;17.008;2023-01-01T14:44:48;17.30;79.40
76203;DHT22;64985;46.364;17.008;2023-01-01T14:47:53;16.90;83.30
76203;DHT22;64985;46.364;17.008;2023-01-01T14:50:56;16.50;87.00
76203;DHT22;64985;46.364;17.008;2023-01-01T14:54:01;16.10;89.30
76203;DHT22;64985;46.364;17.008;2023-01-01T14:57:10;15.70;92.30
76203;DHT22;64985;46.364;17.008;2023-01-01T15:00:23;15.40;93.70
76203;DHT22;64985;46.364;17.008;2023-01-01T15:03:25;15.30;94.50
76203;DHT22;64985;46.364;17.008;2023-01-01T15:06:28;15.10;96.00
76203;DHT22;64985;46.364;17.008;2023-01-01T15:09:31;14.90;96.60
76203;DHT22;64985;46.364;17.008;2023-01-01T15:12:34;14.70;97.20
76203;DHT22;64985;46.364;17.008;2023-01-01T15:15:41;14.50;98.40
76203;DHT22;64985;46.364;17.008;2023-01-01T15:18:45;14.40;99.00
76203;DHT22;64985;46.364;17.008;2023-01-01T15:21:47;14.30;99.20
76203;DHT22;64985;46.364;17.008;2023-01-01T15:24:50;14.40;99.10
76203;DHT22;64985;46.364;17.008;2023-01-01T15:27:53;14.30;99.40
76203;DHT22;64985;46.364;17.008;2023-01-01T15:30:56;14.10;99.90
76203;DHT22;64985;46.364;17.008;2023-01-01T15:33:58;14.00;99.90
76203;DHT22;64985;46.364;17.008;2023-01-01T15:46:23;14.00;99.90
76203;DHT22;64985;46.364;17.008;2023-01-01T15:49:33;13.90;99.90
76203;DHT22;64985;46.364;17.008;2023-01-01T15:52:36;13.80;99.90
76203;DHT22;64985;46.364;17.008;2023-01-01T15:55:43;13.70;99.90
76203;DHT22;64985;46.364;17.008;2023-01-01T15:58:52;13.50;99.90
76203;DHT22;64985;46.364;17.008;2023-01-01T16:05:20;12.50;99.90
76203;DHT22;64985;46.364;17.008;2023-01-01T16:08:24;12.20;99.90
76203;DHT22;64985;46.364;17.008;2023-01-01T16:11:26;12.00;99.90
76203;DHT22;64985;46.364;17.008;2023-01-01T16:14:29;11.70;99.90
76203;DHT22;64985;46.364;17.008;2023-01-01T16:17:31;11.40;99.90
76203;DHT22;64985;46.364;17.008;2023-01-01T16:20:35;11.10;99.90
76203;DHT22;64985;46.364;17.008;2023-01-01T16:23:37;10.90;99.90
76203;DHT22;64985;46.364;17.008;2023-01-01T16:26:40;10.80;99.90
76203;DHT22;64985;46.364;17.008;2023-01-01T16:29:42;10.70;99.90
76203;DHT22;64985;46.364;17.008;2023-01-01T16:32:50;10.60;99.90
76203;DHT22;64985;46.364;17.008;2023-01-01T16:35:53;10.50;99.90
76203;DHT22;64985;46.364;17.008;2023-01-01T16:38:56;10.50;99.90
76203;DHT22;64985;46.364;17.008;2023-01-01T16:41:58;10.30;99.90
76203;DHT22;64985;46.364;17.008;2023-01-01T16:45:01;10.10;99.90
76203;DHT22;64985;46.364;17.008;2023-01-01T16:48:03;10.00;99.90
76203;DHT22;64985;46.364;17.008;2023-01-01T16:51:08;9.80;99.90
76203;DHT22;64985;46.364;17.008;2023-01-01T16:54:14;9.70;99.90
76203;DHT22;64985;46.364;17.008;2023-01-01T16:57:16;9.60;99.90
76203;DHT22;64985;46.364;17.008;2023-01-01T17:00:18;9.40;99.90
76203;DHT22;64985;46.364;17.008;2023-01-01T17:03:21;9.30;99.90
76203;DHT22;64985;46.364;17.008;2023-01-01T17:06:23;9.20;99.90
76203;DHT22;64985;46.364;17.008;2023-01-01T17:09:26;9.00;99.90
76203;DHT22;64985;46.364;17.008;2023-01-01T17:12:28;8.80;99.90
76203;DHT22;64985;46.364;17.008;2023-01-01T17:15:31;8.60;99.90
76203;DHT22;64985;46.364;17.008;2023-01-01T17:18:33;8.40;99.90
76203;DHT22;64985;46.364;17.008;2023-01-01T17:21:55;8.30;99.90
76203;DHT22;64985;46.364;17.008;2023-01-01T17:24:58;8.30;99.90
76203;DHT22;64985;46.364;17.008;2023-01-01T17:28:01;8.20;99.90
76203;DHT22;64985;46.364;17.008;2023-01-01T17:31:05;8.10;99.90
76203;DHT22;64985;46.364;17.008;2023-01-01T17:34:08;7.90;99.90
76203;DHT22;64985;46.364;17.008;2023-01-01T17:37:15;7.80;99.90
76203;DHT22;64985;46.364;17.008;2023-01-01T17:40:18;7.70;99.90
76203;DHT22;64985;46.364;17.008;2023-01-01T17:43:20;7.50;99.90
76203;DHT22;64985;46.364;17.008;2023-01-01T17:46:24;7.40;99.90
76203;DHT22;64985;46.364;17.008;2023-01-01T17:49:27;7.40;99.90
76203;DHT22;64985;46.364;17.008;2023-01-01T17:52:29;7.40;99.90
76203;DHT22;64985;46.364;17.008;2023-01-01T17:55:32;7.50;99.90
76203;DHT22;64985;46.364;17.008;2023-01-01T17:58:34;7.60;99.90
76203;DHT22;64985;46.364;17.008;2023-01-01T18:01:37;7.60;99.90
76203;DHT22;64985;46.364;17.008;2023-01-01T18:04:40;7.50;99.90
76203;DHT22;64985;46.364;17.008;2023-01-01T18:07:42;7.40;99.90
76203;DHT22;64985;46.364;17.008;2023-01-01T18:10:52;7.60;99.90
76203;DHT22;64985;46.364;17.008;2023-01-01T18:13:57;7.50;99.90
76203;DHT22;64985;46.364;17.008;2023-01-01T18:17:00;7.60;99.90
76203;DHT22;64985;46.364;17.008;2023-01-01T18:20:02;7.70;99.90
76203;DHT22;64985;46.364;17.008;2023-01-01T18:23:05;7.90;99.90
76203;DHT22;64985;46.364;17.008;2023-01-01T18:26:09;8.00;99.90
76203;DHT22;64985;46.364;17.008;2023-01-01T18:29:12;7.80;99.90
76203;DHT22;64985;46.364;17.008;2023-01-01T18:32:15;7.80;99.90
76203;DHT22;64985;46.364;17.008;2023-01-01T18:35:18;7.70;99.90
76203;DHT22;64985;46.364;17.008;2023-01-01T18:38:20;7.60;99.90
76203;DHT22;64985;46.364;17.008;2023-01-01T18:44:47;8.30;99.90
76203;DHT22;64985;46.364;17.008;2023-01-01T18:47:50;9.10;99.90
76203;DHT22;64985;46.364;17.008;2023-01-01T18:50:53;9.90;99.90
76203;DHT22;64985;46.364;17.008;2023-01-01T18:53:58;10.20;99.90
76203;DHT22;64985;46.364;17.008;2023-01-01T19:00:16;10.30;99.90
76203;DHT22;64985;46.364;17.008;2023-01-01T19:03:21;10.10;99.90
76203;DHT22;64985;46.364;17.008;2023-01-01T19:06:31;10.10;99.90
76203;DHT22;64985;46.364;17.008;2023-01-01T19:09:35;10.40;99.90
76203;DHT22;64985;46.364;17.008;2023-01-01T19:12:38;10.30;99.90
76203;DHT22;64985;46.364;17.008;2023-01-01T19:15:46;10.20;99.90
76203;DHT22;64985;46.364;17.008;2023-01-01T19:18:50;10.00;99.90
76203;DHT22;64985;46.364;17.008;2023-01-01T19:22:29;9.90;99.90
76203;DHT22;64985;46.364;17.008;2023-01-01T19:25:36;9.70;99.90
76203;DHT22;64985;46.364;17.008;2023-01-01T19:28:40;9.50;99.90
76203;DHT22;64985;46.364;17.008;2023-01-01T19:31:46;9.40;99.90
76203;DHT22;64985;46.364;17.008;2023-01-01T19:34:49;9.40;99.90
76203;DHT22;64985;46.364;17.008;2023-01-01T19:37:52;9.30;99.90
76203;DHT22;64985;46.364;17.008;2023-01-01T19:40:55;9.10;99.90
76203;DHT22;64985;46.364;17.008;2023-01-01T19:43:58;9.10;99.90
76203;DHT22;64985;46.364;17.008;2023-01-01T19:47:00;9.00;99.90
76203;DHT22;64985;46.364;17.008;2023-01-01T19:50:04;9.00;99.90
76203;DHT22;64985;46.364;17.008;2023-01-01T19:53:06;8.90;99.90
76203;DHT22;64985;46.364;17.008;2023-01-01T19:56:10;8.70;99.90
76203;DHT22;64985;46.364;17.008;2023-01-01T19:59:13;8.60;99.90
76203;DHT22;64985;46.364;17.008;2023-01-01T20:02:18;8.50;99.90
76203;DHT22;64985;46.364;17.008;2023-01-01T20:05:41;8.40;99.90
76203;DHT22;64985;46.364;17.008;2023-01-01T20:08:48;8.00;99.90
76203;DHT22;64985;46.364;17.008;2023-01-01T20:11:52;7.90;99.90
76203;DHT22;64985;46.364;17.008;2023-01-01T20:14:55;7.70;99.90
76203;DHT22;64985;46.364;17.008;2023-01-01T20:17:59;7.60;99.90
76203;DHT22;64985;46.364;17.008;2023-01-01T20:21:03;7.50;99.90
76203;DHT22;64985;46.364;17.008;2023-01-01T20:24:29;7.50;99.90
76203;DHT22;64985;46.364;17.008;2023-01-01T20:27:33;7.40;99.90
76203;DHT22;64985;46.364;17.008;2023-01-01T20:30:38;7.30;99.90
76203;DHT22;64985;46.364;17.008;2023-01-01T20:33:42;7.30;99.90
76203;DHT22;64985;46.364;17.008;2023-01-01T20:36:47;7.30;99.90
76203;DHT22;64985;46.364;17.008;2023-01-01T20:40:10;7.30;99.90
76203;DHT22;64985;46.364;17.008;2023-01-01T20:43:15;7.40;99.90
76203;DHT22;64985;46.364;17.008;2023-01-01T20:46:19;7.60;99.90
76203;DHT22;64985;46.364;17.008;2023-01-01T20:49:23;7.80;99.90
76203;DHT22;64985;46.364;17.008;2023-01-01T20:52:27;7.80;99.90
76203;DHT22;64985;46.364;17.008;2023-01-01T20:55:31;7.80;99.90
76203;DHT22;64985;46.364;17.008;2023-01-01T20:58:35;7.60;99.90
76203;DHT22;64985;46.364;17.008;2023-01-01T21:01:44;7.20;99.90
76203;DHT22;64985;46.364;17.008;2023-01-01T21:08:09;6.90;99.90
76203;DHT22;64985;46.364;17.008;2023-01-01T21:11:14;6.80;99.90
76203;DHT22;64985;46.364;17.008;2023-01-01T21:14:19;6.90;99.90
76203;DHT22;64985;46.364;17.008;2023-01-01T21:17:23;6.90;99.90
76203;DHT22;64985;46.364;17.008;2023-01-01T21:20:39;6.90;99.90